Shinkai Maru — JJ4012 — position and weather

sailwx.info

Track history (hours):
 
Tides and Currents Weather Stations Pressure Air Temp Water Temp Dewpoint Dewpoint Depression Visibility Wind Speed Wind Dir Waves Ship Positions

Shinkai Maru

Last reported at 2016-Feb-04 11:10 UTC. Time now 2016-Feb-06 11:23 UTC.
Position N 34°13' E 134°59'.

Length 76 m; draft 4.1 m.

Type: Cargo ship. MMSI: 431301346.

Date/timePositionNaut miles runAvg speedWind from/ knotsBaromVisibWave heightAir tempDewpointWater temp
2016-Feb-04 11:10N 34°13' E 134°59'1212.5
2016-Feb-04 10:11N 34°25' E 134°60'812.1
2016-Feb-04 09:29N 34°34' E 135°02'8 8.4
2016-Feb-04 08:32N 34°37' E 134°54'5 0.1
2016-Feb-02 14:15N 34°41' E 134°50'810.2
2016-Feb-02 13:29N 34°38' E 134°58'7 7.9
2016-Feb-02 12:33N 34°32' E 135°04'2110.7
2016-Feb-02 10:33N 34°11' E 134°60'239 9.8
2016-Feb-01 10:17N 35°07' E 139°42'912.4
2016-Feb-01 09:33N 35°15' E 139°46'1110.6
2016-Feb-01 08:33N 35°26' E 139°44'1212.1
2016-Feb-01 07:33N 35°34' E 139°55'7 6.7
2016-Feb-01 06:33N 35°41' E 139°58'0 0.0
2016-Feb-01 05:33N 35°41' E 139°58'0 0.0
2016-Feb-01 04:33N 35°41' E 139°58'0 0.0
2016-Feb-01 03:33N 35°41' E 139°58'0 0.0
2016-Feb-01 02:30N 35°41' E 139°58'0 0.0
2016-Feb-01 01:30N 35°41' E 139°58'0 0.0
2016-Feb-01 00:33N 35°41' E 139°58'0 0.0
2016-Jan-31 23:33N 35°41' E 139°58'0 0.0
2016-Jan-31 22:33N 35°41' E 139°58'0 0.0
2016-Jan-31 21:33N 35°41' E 139°58'0 0.0
2016-Jan-31 20:33N 35°41' E 139°58'0 0.0
2016-Jan-31 19:15N 35°41' E 139°58'0 0.0
2016-Jan-31 18:27N 35°41' E 139°58'0 0.0
2016-Jan-31 17:33N 35°41' E 139°58'0 0.0
2016-Jan-31 16:33N 35°41' E 139°58'0 0.0
2016-Jan-31 15:27N 35°41' E 139°58'0 0.0
2016-Jan-31 14:33N 35°41' E 139°58'0 0.0
2016-Jan-31 13:09N 35°41' E 139°58'0 0.0
2016-Jan-31 12:21N 35°41' E 139°58'0 0.0
2016-Jan-31 11:33N 35°41' E 139°58'0 0.0
2016-Jan-31 10:33N 35°41' E 139°58'0 0.0
2016-Jan-31 09:33N 35°41' E 139°58'0 0.0
2016-Jan-31 08:27N 35°41' E 139°58'0 0.0
2016-Jan-31 07:33N 35°41' E 139°58'0 0.0
2016-Jan-31 06:33N 35°41' E 139°58'0 0.0
2016-Jan-31 05:33N 35°41' E 139°58'0 0.0
2016-Jan-31 04:33N 35°41' E 139°58'0 0.0
2016-Jan-31 03:09N 35°41' E 139°58'0 0.0
2016-Jan-31 02:33N 35°41' E 139°58'0 0.0
2016-Jan-31 01:33N 35°41' E 139°58'0 0.0
2016-Jan-31 00:15N 35°41' E 139°58'0 0.0
2016-Jan-30 23:33N 35°41' E 139°58'0 0.0
2016-Jan-30 22:33N 35°41' E 139°58'0 0.0
2016-Jan-30 21:27N 35°41' E 139°58'0 0.0
2016-Jan-30 20:33N 35°41' E 139°58'0 0.0
2016-Jan-30 19:33N 35°41' E 139°58'0 0.0
2016-Jan-30 18:33N 35°41' E 139°58'0 0.0
2016-Jan-30 17:27N 35°41' E 139°58'0 0.0
2016-Jan-30 16:27N 35°41' E 139°58'0 0.0
2016-Jan-30 15:09N 35°41' E 139°58'0 0.0
2016-Jan-30 14:33N 35°41' E 139°58'0 0.0
2016-Jan-30 13:33N 35°41' E 139°58'0 0.0
2016-Jan-30 12:33N 35°41' E 139°58'0 0.0
2016-Jan-30 11:27N 35°41' E 139°58'0 0.0
2016-Jan-30 10:33N 35°41' E 139°58'0 0.0
2016-Jan-30 09:33N 35°41' E 139°58'0 0.0
2016-Jan-30 08:33N 35°41' E 139°58'0 0.0
2016-Jan-30 07:33N 35°41' E 139°58'0 0.0
2016-Jan-30 06:27N 35°41' E 139°58'0 0.0
2016-Jan-30 05:33N 35°41' E 139°58'0 0.0
2016-Jan-30 04:27N 35°41' E 139°58'0 0.0
2016-Jan-30 03:33N 35°41' E 139°58'0 0.0
2016-Jan-30 02:27N 35°41' E 139°58'0 0.0
2016-Jan-30 01:33N 35°41' E 139°58'0 0.0
2016-Jan-30 00:27N 35°41' E 139°58'0 0.0
2016-Jan-29 23:33N 35°41' E 139°58'0 0.0
2016-Jan-29 22:27N 35°41' E 139°58'0 0.0
2016-Jan-29 21:33N 35°41' E 139°58'0 0.0
2016-Jan-29 20:27N 35°41' E 139°58'0 0.0
2016-Jan-29 18:33N 35°41' E 139°58'0 0.0
2016-Jan-29 17:27N 35°41' E 139°58'0 0.0
2016-Jan-29 16:33N 35°41' E 139°58'0 0.0
2016-Jan-29 15:27N 35°41' E 139°58'3 3.7
2016-Jan-29 14:33N 35°37' E 139°59'1110.7
2016-Jan-29 13:33N 35°29' E 139°51'1010.2
2016-Jan-29 12:33N 35°20' E 139°44'1010.1
2016-Jan-29 11:33N 35°10' E 139°46'239 9.1
2016-Jan-28 09:19N 34°25' E 134°60'912.5
2016-Jan-28 08:33N 34°34' E 135°03'8 0.2
2016-Jan-26 14:30N 34°38' E 134°54'1010.6
2016-Jan-26 13:33N 34°33' E 135°05'1712.8
2016-Jan-26 12:12N 34°16' E 134°59'812.3
2016-Jan-26 11:33N 34°08' E 135°00'  
Track history (hours):
 
Tides and Currents Weather Stations Pressure Air Temp Water Temp Dewpoint Dewpoint Depression Visibility Wind Speed Wind Dir Waves Ship Positions

Shinkai Maru

Last reported at 2016-Feb-04 11:10 UTC. Time now 2016-Feb-06 11:23 UTC.
Position N 34°13' E 134°59'.

Length 76 m; draft 4.1 m.

Type: Cargo ship. MMSI: 431301346.

Date/timePositionNaut miles runAvg speedWind from/ knotsBaromVisibWave heightAir tempDewpointWater temp
2016-Feb-04 11:10N 34°13' E 134°59'1212.5
2016-Feb-04 10:11N 34°25' E 134°60'812.1
2016-Feb-04 09:29N 34°34' E 135°02'8 8.4
2016-Feb-04 08:32N 34°37' E 134°54'5 0.1
2016-Feb-02 14:15N 34°41' E 134°50'810.2
2016-Feb-02 13:29N 34°38' E 134°58'7 7.9
2016-Feb-02 12:33N 34°32' E 135°04'2110.7
2016-Feb-02 10:33N 34°11' E 134°60'239 9.8
2016-Feb-01 10:17N 35°07' E 139°42'912.4
2016-Feb-01 09:33N 35°15' E 139°46'1110.6
2016-Feb-01 08:33N 35°26' E 139°44'1212.1
2016-Feb-01 07:33N 35°34' E 139°55'7 6.7
2016-Feb-01 06:33N 35°41' E 139°58'0 0.0
2016-Feb-01 05:33N 35°41' E 139°58'0 0.0
2016-Feb-01 04:33N 35°41' E 139°58'0 0.0
2016-Feb-01 03:33N 35°41' E 139°58'0 0.0
2016-Feb-01 02:30N 35°41' E 139°58'0 0.0
2016-Feb-01 01:30N 35°41' E 139°58'0 0.0
2016-Feb-01 00:33N 35°41' E 139°58'0 0.0
2016-Jan-31 23:33N 35°41' E 139°58'0 0.0
2016-Jan-31 22:33N 35°41' E 139°58'0 0.0
2016-Jan-31 21:33N 35°41' E 139°58'0 0.0
2016-Jan-31 20:33N 35°41' E 139°58'0 0.0
2016-Jan-31 19:15N 35°41' E 139°58'0 0.0
2016-Jan-31 18:27N 35°41' E 139°58'0 0.0
2016-Jan-31 17:33N 35°41' E 139°58'0 0.0
2016-Jan-31 16:33N 35°41' E 139°58'0 0.0
2016-Jan-31 15:27N 35°41' E 139°58'0 0.0
2016-Jan-31 14:33N 35°41' E 139°58'0 0.0
2016-Jan-31 13:09N 35°41' E 139°58'0 0.0
2016-Jan-31 12:21N 35°41' E 139°58'0 0.0
2016-Jan-31 11:33N 35°41' E 139°58'0 0.0
2016-Jan-31 10:33N 35°41' E 139°58'0 0.0
2016-Jan-31 09:33N 35°41' E 139°58'0 0.0
2016-Jan-31 08:27N 35°41' E 139°58'0 0.0
2016-Jan-31 07:33N 35°41' E 139°58'0 0.0
2016-Jan-31 06:33N 35°41' E 139°58'0 0.0
2016-Jan-31 05:33N 35°41' E 139°58'0 0.0
2016-Jan-31 04:33N 35°41' E 139°58'0 0.0
2016-Jan-31 03:09N 35°41' E 139°58'0 0.0
2016-Jan-31 02:33N 35°41' E 139°58'0 0.0
2016-Jan-31 01:33N 35°41' E 139°58'0 0.0
2016-Jan-31 00:15N 35°41' E 139°58'0 0.0
2016-Jan-30 23:33N 35°41' E 139°58'0 0.0
2016-Jan-30 22:33N 35°41' E 139°58'0 0.0
2016-Jan-30 21:27N 35°41' E 139°58'0 0.0
2016-Jan-30 20:33N 35°41' E 139°58'0 0.0
2016-Jan-30 19:33N 35°41' E 139°58'0 0.0
2016-Jan-30 18:33N 35°41' E 139°58'0 0.0
2016-Jan-30 17:27N 35°41' E 139°58'0 0.0
2016-Jan-30 16:27N 35°41' E 139°58'0 0.0
2016-Jan-30 15:09N 35°41' E 139°58'0 0.0
2016-Jan-30 14:33N 35°41' E 139°58'0 0.0
2016-Jan-30 13:33N 35°41' E 139°58'0 0.0
2016-Jan-30 12:33N 35°41' E 139°58'0 0.0
2016-Jan-30 11:27N 35°41' E 139°58'0 0.0
2016-Jan-30 10:33N 35°41' E 139°58'0 0.0
2016-Jan-30 09:33N 35°41' E 139°58'0 0.0
2016-Jan-30 08:33N 35°41' E 139°58'0 0.0
2016-Jan-30 07:33N 35°41' E 139°58'0 0.0
2016-Jan-30 06:27N 35°41' E 139°58'0 0.0
2016-Jan-30 05:33N 35°41' E 139°58'0 0.0
2016-Jan-30 04:27N 35°41' E 139°58'0 0.0
2016-Jan-30 03:33N 35°41' E 139°58'0 0.0
2016-Jan-30 02:27N 35°41' E 139°58'0 0.0
2016-Jan-30 01:33N 35°41' E 139°58'0 0.0
2016-Jan-30 00:27N 35°41' E 139°58'0 0.0
2016-Jan-29 23:33N 35°41' E 139°58'0 0.0
2016-Jan-29 22:27N 35°41' E 139°58'0 0.0
2016-Jan-29 21:33N 35°41' E 139°58'0 0.0
2016-Jan-29 20:27N 35°41' E 139°58'0 0.0
2016-Jan-29 18:33N 35°41' E 139°58'0 0.0
2016-Jan-29 17:27N 35°41' E 139°58'0 0.0
2016-Jan-29 16:33N 35°41' E 139°58'0 0.0
2016-Jan-29 15:27N 35°41' E 139°58'3 3.7
2016-Jan-29 14:33N 35°37' E 139°59'1110.7
2016-Jan-29 13:33N 35°29' E 139°51'1010.2
2016-Jan-29 12:33N 35°20' E 139°44'1010.1
2016-Jan-29 11:33N 35°10' E 139°46'239 9.1
2016-Jan-28 09:19N 34°25' E 134°60'912.5
2016-Jan-28 08:33N 34°34' E 135°03'8 0.2
2016-Jan-26 14:30N 34°38' E 134°54'1010.6
2016-Jan-26 13:33N 34°33' E 135°05'1712.8
2016-Jan-26 12:12N 34°16' E 134°59'812.3
2016-Jan-26 11:33N 34°08' E 135°00'  

Dump ship's entire track history